Terminal Aerodrome Forecast
Issued by NWS Twin Cities, MN

Home | Current Version | Previous Version | Text Only | Print | Product List | Glossary Off
Versions: 1 2 3 4 5 6 7 8 9 10 11 12 13

000
FTUS43 KMPX 161739
TAFEAU
TAF
KEAU 161739Z 1618/1718 18009KT P6SM SCT040 BKN090
     FM170000 20005KT P6SM -SHRA VCTS SCT020 BKN040CB
     FM170600 28008KT P6SM VCTS BKN020CB
     FM170900 29007KT P6SM BKN025
     FM171300 29008KT P6SM SCT040=

USA.gov is the U.S. government's official web portal to all federal, state and local government web resources and services.